createdAt,value
2018-06-28T00:00:26.118Z,49.03
2018-06-28T00:02:53.894Z,49.08
2018-06-28T00:05:21.555Z,49.35
2018-06-28T00:07:50.193Z,48.98
2018-06-28T00:10:17.844Z,49.02
2018-06-28T00:12:46.271Z,49.46
2018-06-28T00:15:14.264Z,49.48
2018-06-28T00:17:41.900Z,49.70
2018-06-28T00:20:09.622Z,49.80
2018-06-28T00:22:37.620Z,49.79
2018-06-28T00:25:05.279Z,50.04
2018-06-28T00:27:32.943Z,49.78
2018-06-28T00:30:00.927Z,49.69
2018-06-28T00:32:29.325Z,49.91
2018-06-28T00:34:56.999Z,50.44
2018-06-28T00:37:24.896Z,50.27
2018-06-28T00:39:52.497Z,50.32
2018-06-28T00:42:20.157Z,50.23
2018-06-28T00:44:48.202Z,50.52
2018-06-28T00:47:16.055Z,50.85
2018-06-28T00:49:45.084Z,51.13
2018-06-28T00:52:13.123Z,50.87
2018-06-28T00:54:40.769Z,51.30
2018-06-28T00:57:08.410Z,51.49
2018-06-28T00:59:36.586Z,51.25
2018-06-28T01:02:04.242Z,51.53
2018-06-28T01:04:32.095Z,51.71
2018-06-28T01:07:00.165Z,51.69
2018-06-28T01:09:27.818Z,51.57
2018-06-28T01:11:56.208Z,51.83
2018-06-28T01:14:24.119Z,51.36
2018-06-28T01:16:51.731Z,51.63
2018-06-28T01:19:19.333Z,51.53
2018-06-28T01:21:47.391Z,51.97
2018-06-28T01:24:15.004Z,51.67
2018-06-28T01:26:42.773Z,52.08
2018-06-28T01:29:10.793Z,51.77
2018-06-28T01:31:38.379Z,52.17
2018-06-28T01:34:06.046Z,51.68
2018-06-28T01:36:34.397Z,52.24
2018-06-28T01:39:02.115Z,52.27
2018-06-28T01:41:40.375Z,52.11
2018-06-28T01:44:08.163Z,52.06
2018-06-28T01:46:35.841Z,52.38
2018-06-28T01:49:03.897Z,51.84
2018-06-28T01:51:31.956Z,52.53
2018-06-28T01:53:59.549Z,52.38
2018-06-28T01:56:27.384Z,52.62
2018-06-28T01:58:55.054Z,52.52
2018-06-28T02:01:25.928Z,52.67
2018-06-28T02:03:53.683Z,52.80
2018-06-28T02:06:21.674Z,52.74
2018-06-28T02:08:49.298Z,52.83
2018-06-28T02:11:17.137Z,52.94
2018-06-28T02:13:45.018Z,52.97
2018-06-28T02:16:12.641Z,52.77
2018-06-28T02:18:40.438Z,53.25
2018-06-28T02:21:08.307Z,53.37
2018-06-28T02:23:35.977Z,53.60
2018-06-28T02:26:03.882Z,53.28
2018-06-28T02:28:32.643Z,53.47
2018-06-28T02:31:01.431Z,53.84
2018-06-28T02:33:29.124Z,53.72
2018-06-28T02:35:56.863Z,53.94
2018-06-28T02:38:24.474Z,53.84
2018-06-28T02:40:52.595Z,53.74
2018-06-28T02:43:21.004Z,53.77
2018-06-28T02:45:48.685Z,53.72
2018-06-28T02:48:16.520Z,53.86
2018-06-28T02:50:44.234Z,53.86
2018-06-28T02:53:11.868Z,54.44
2018-06-28T02:55:40.058Z,54.18
2018-06-28T02:58:07.933Z,54.36
2018-06-28T03:00:35.535Z,54.39
2018-06-28T03:03:03.333Z,54.36
2018-06-28T03:05:31.148Z,54.58
2018-06-28T03:07:58.896Z,54.45
2018-06-28T03:10:26.989Z,54.70
2018-06-28T03:12:54.902Z,54.71
2018-06-28T03:15:22.644Z,54.49
2018-06-28T03:17:50.504Z,54.95
2018-06-28T03:20:18.328Z,54.45
2018-06-28T03:22:45.978Z,54.34
2018-06-28T03:25:13.888Z,54.91
2018-06-28T03:27:41.752Z,54.92
2018-06-28T03:30:09.486Z,55.15
2018-06-28T03:32:37.248Z,55.35
2018-06-28T03:35:05.593Z,55.49
2018-06-28T03:37:33.302Z,55.14
2018-06-28T03:40:01.153Z,54.87
2018-06-28T03:42:29.078Z,54.81
2018-06-28T03:44:56.739Z,54.74
2018-06-28T03:47:24.450Z,54.88
2018-06-28T03:49:53.026Z,55.06
2018-06-28T03:52:20.713Z,55.20
2018-06-28T03:54:48.430Z,55.10
2018-06-28T03:57:16.321Z,55.00
2018-06-28T03:59:43.937Z,54.66
2018-06-28T04:02:11.899Z,54.64
2018-06-28T04:04:39.721Z,54.66
2018-06-28T04:07:07.350Z,54.77
2018-06-28T04:09:35.580Z,55.36
2018-06-28T04:12:03.352Z,54.84
2018-06-28T04:14:31.004Z,54.84
2018-06-28T04:16:58.898Z,55.29
2018-06-28T04:19:26.706Z,54.85
2018-06-28T04:21:54.290Z,54.79
2018-06-28T04:24:22.198Z,55.14
2018-06-28T04:26:49.997Z,55.56
2018-06-28T04:29:17.646Z,55.63
2018-06-28T04:31:45.601Z,55.45
2018-06-28T04:34:13.355Z,56.07
2018-06-28T04:36:41.028Z,55.81
2018-06-28T04:39:10.275Z,55.84
2018-06-28T04:41:38.190Z,55.96
2018-06-28T04:44:05.805Z,55.88
2018-06-28T04:46:33.678Z,55.54
2018-06-28T04:49:02.380Z,55.93
2018-06-28T04:51:30.056Z,55.50
2018-06-28T04:53:57.935Z,56.00
2018-06-28T04:56:25.873Z,55.61
2018-06-28T04:58:54.210Z,56.02
2018-06-28T05:01:21.938Z,55.70
2018-06-28T05:03:49.762Z,56.19
2018-06-28T05:06:17.399Z,56.37
2018-06-28T05:08:45.202Z,55.78
2018-06-28T05:11:13.113Z,55.66
2018-06-28T05:13:40.852Z,56.31
2018-06-28T05:16:09.542Z,56.54
2018-06-28T05:18:38.454Z,56.42
2018-06-28T05:21:06.104Z,56.51
2018-06-28T05:23:33.911Z,56.59
2018-06-28T05:26:01.746Z,56.24
2018-06-28T05:28:29.440Z,56.76
2018-06-28T05:30:57.153Z,56.62
2018-06-28T05:33:25.138Z,56.77
2018-06-28T05:35:52.786Z,56.25
2018-06-28T05:38:20.613Z,56.40
2018-06-28T05:40:48.393Z,56.55
2018-06-28T05:43:17.657Z,56.11
2018-06-28T05:45:45.351Z,55.89
2018-06-28T05:48:14.040Z,55.92
2018-06-28T05:50:41.716Z,56.02
2018-06-28T05:53:09.594Z,55.73
2018-06-28T05:55:39.094Z,55.88
2018-06-28T05:58:06.902Z,56.16
2018-06-28T06:00:34.596Z,56.20
2018-06-28T06:03:02.816Z,55.96
2018-06-28T06:05:30.471Z,55.93
2018-06-28T06:07:58.338Z,55.99
2018-06-28T06:10:26.203Z,56.64
2018-06-28T06:12:53.787Z,56.27
2018-06-28T06:15:21.605Z,56.84
2018-06-28T06:17:49.428Z,56.80
2018-06-28T06:20:17.334Z,57.07
2018-06-28T06:22:45.025Z,57.15
2018-06-28T06:25:12.941Z,56.85
2018-06-28T06:27:40.582Z,57.30
2018-06-28T06:30:08.867Z,57.34
2018-06-28T06:32:36.706Z,57.27
2018-06-28T06:35:04.406Z,57.10
2018-06-28T06:37:32.303Z,57.85
2018-06-28T06:40:00.195Z,57.25
2018-06-28T06:42:27.825Z,57.71
2018-06-28T06:44:55.616Z,57.22
2018-06-28T06:47:23.428Z,57.51
2018-06-28T06:49:51.207Z,57.08
2018-06-28T06:52:19.156Z,57.48
2018-06-28T06:54:46.859Z,57.49
2018-06-28T06:57:14.450Z,57.20
2018-06-28T06:59:43.222Z,57.03
2018-06-28T07:02:10.984Z,57.38
2018-06-28T07:04:38.555Z,57.39
2018-06-28T07:07:06.361Z,57.94
2018-06-28T07:09:34.279Z,57.34
2018-06-28T07:12:01.915Z,57.81
2018-06-28T07:14:29.636Z,57.87
2018-06-28T07:16:57.486Z,57.47
2018-06-28T07:19:25.140Z,57.73
2018-06-28T07:21:53.223Z,57.39
2018-06-28T07:24:21.092Z,58.04
2018-06-28T07:26:48.702Z,57.92
2018-06-28T07:29:16.462Z,57.66
2018-06-28T07:31:44.373Z,57.86
2018-06-28T07:34:12.077Z,58.15
2018-06-28T07:36:39.854Z,58.27
2018-06-28T07:39:09.490Z,58.33
2018-06-28T07:41:37.478Z,58.10
2018-06-28T07:44:05.226Z,57.94
2018-06-28T07:46:33.033Z,58.44
2018-06-28T07:49:01.772Z,58.29
2018-06-28T07:51:29.777Z,58.28
2018-06-28T07:53:57.682Z,57.79
2018-06-28T07:56:25.890Z,57.76
2018-06-28T07:58:55.183Z,57.89
2018-06-28T08:01:23.098Z,57.99
2018-06-28T08:03:50.650Z,57.76
2018-06-28T08:06:18.496Z,57.55
2018-06-28T08:08:46.247Z,57.23
2018-06-28T08:11:13.838Z,57.08
2018-06-28T08:13:41.660Z,56.37
2018-06-28T08:16:09.408Z,56.86
2018-06-28T08:18:37.120Z,56.72
2018-06-28T08:21:04.982Z,56.19
2018-06-28T08:23:33.443Z,56.27
2018-06-28T08:26:01.064Z,56.38
2018-06-28T08:28:28.835Z,55.82
2018-06-28T08:30:56.589Z,56.06
2018-06-28T08:33:24.211Z,55.85
2018-06-28T08:35:52.138Z,55.26
2018-06-28T08:38:20.036Z,55.40
2018-06-28T08:40:48.469Z,55.49
2018-06-28T08:43:16.275Z,55.12
2018-06-28T08:45:44.166Z,55.28
2018-06-28T08:48:11.805Z,55.19
2018-06-28T08:50:40.318Z,55.05
2018-06-28T08:53:08.078Z,54.96
2018-06-28T08:55:35.722Z,55.09
2018-06-28T08:58:03.716Z,55.07
2018-06-28T09:00:31.457Z,55.10
2018-06-28T09:02:59.043Z,55.07
2018-06-28T09:05:27.022Z,55.09
2018-06-28T09:07:54.817Z,55.02
2018-06-28T09:10:22.501Z,54.59
2018-06-28T09:12:50.242Z,55.14
2018-06-28T09:15:18.196Z,55.14
2018-06-28T09:17:45.804Z,55.23
2018-06-28T09:20:13.632Z,55.37
2018-06-28T09:22:41.611Z,54.97
2018-06-28T09:25:09.666Z,55.33
2018-06-28T09:27:37.513Z,54.90
2018-06-28T09:30:05.850Z,54.71
2018-06-28T09:32:34.096Z,55.12
2018-06-28T09:35:01.853Z,54.60
2018-06-28T09:37:29.875Z,54.74
2018-06-28T09:39:57.586Z,54.51
2018-06-28T09:42:25.349Z,54.81
2018-06-28T09:44:53.194Z,54.38
2018-06-28T09:47:20.897Z,54.64
2018-06-28T09:49:48.800Z,54.46
2018-06-28T09:52:16.684Z,54.47
2018-06-28T09:54:44.346Z,54.48
2018-06-28T09:57:12.176Z,54.40
2018-06-28T09:59:40.019Z,54.23
2018-06-28T10:02:08.359Z,54.81
2018-06-28T10:04:36.160Z,54.58
2018-06-28T10:07:04.248Z,55.09
2018-06-28T10:09:31.901Z,55.66
2018-06-28T10:11:59.689Z,55.56
2018-06-28T10:14:27.362Z,56.08
2018-06-28T10:16:55.005Z,56.27
2018-06-28T10:19:22.820Z,56.02
2018-06-28T10:21:50.794Z,56.67
2018-06-28T10:24:18.427Z,56.95
2018-06-28T10:26:46.347Z,56.87
2018-06-28T10:29:14.253Z,56.96
2018-06-28T10:31:41.848Z,56.61
2018-06-28T10:34:09.745Z,56.92
2018-06-28T10:36:37.468Z,57.04
2018-06-28T10:39:07.186Z,57.02
2018-06-28T10:41:34.983Z,56.69
2018-06-28T10:44:03.078Z,57.15
2018-06-28T10:46:31.390Z,57.15
2018-06-28T10:48:59.149Z,57.01
2018-06-28T10:51:26.968Z,56.64
2018-06-28T10:53:54.697Z,57.20
2018-06-28T10:56:22.527Z,56.76
2018-06-28T10:58:50.223Z,56.55
2018-06-28T11:01:17.814Z,56.66
2018-06-28T11:03:45.558Z,56.63
2018-06-28T11:06:13.388Z,56.40
2018-06-28T11:08:41.114Z,56.46
2018-06-28T11:11:09.028Z,56.89
2018-06-28T11:13:36.821Z,56.77
2018-06-28T11:16:04.417Z,56.38
2018-06-28T11:18:32.321Z,56.39
2018-06-28T11:21:00.021Z,56.37
2018-06-28T11:23:27.668Z,55.78
2018-06-28T11:25:56.349Z,56.02
2018-06-28T11:28:25.131Z,56.42
2018-06-28T11:30:52.752Z,56.11
2018-06-28T11:33:20.503Z,55.96
2018-06-28T11:35:48.433Z,55.92
2018-06-28T11:38:16.670Z,56.10
2018-06-28T11:40:44.540Z,55.65
2018-06-28T11:43:12.373Z,56.03
2018-06-28T11:45:40.040Z,56.00
2018-06-28T11:48:07.816Z,55.72
2018-06-28T11:50:35.610Z,56.29
2018-06-28T11:53:03.324Z,55.80
2018-06-28T11:55:31.123Z,55.91
2018-06-28T11:57:58.883Z,56.10
2018-06-28T12:00:27.219Z,55.91
2018-06-28T12:02:55.745Z,55.83
2018-06-28T12:05:23.720Z,56.60
2018-06-28T12:07:51.331Z,56.14
2018-06-28T12:10:19.001Z,56.46
2018-06-28T12:12:46.805Z,56.29
2018-06-28T12:15:15.387Z,56.20
2018-06-28T12:17:43.294Z,56.35
2018-06-28T12:20:11.148Z,56.28
2018-06-28T12:22:39.960Z,56.85
2018-06-28T12:25:07.789Z,56.83
2018-06-28T12:27:35.805Z,56.88
2018-06-28T12:30:05.461Z,56.90
2018-06-28T12:32:33.205Z,57.48
2018-06-28T12:35:01.085Z,56.93
2018-06-28T12:37:28.697Z,57.00
2018-06-28T12:39:57.990Z,57.18
2018-06-28T12:42:25.850Z,57.04
2018-06-28T12:44:53.468Z,56.94
2018-06-28T12:48:13.868Z,57.00
2018-06-28T12:50:41.547Z,57.00
2018-06-28T12:53:10.292Z,57.66
2018-06-28T12:56:44.773Z,57.51
2018-06-28T12:59:14.535Z,57.35
2018-06-28T13:01:42.284Z,58.03
2018-06-28T13:04:10.344Z,58.01
2018-06-28T13:06:38.157Z,57.89
2018-06-28T13:09:10.741Z,58.54
2018-06-28T13:11:39.826Z,58.30
2018-06-28T13:14:07.764Z,58.42
2018-06-28T13:16:35.636Z,58.89
2018-06-28T13:19:04.932Z,58.61
2018-06-28T13:21:32.785Z,58.93
2018-06-28T13:24:01.317Z,58.81
2018-06-28T13:26:29.046Z,58.66
2018-06-28T13:28:56.738Z,58.87
2018-06-28T13:31:25.080Z,58.70
2018-06-28T13:33:53.022Z,58.66
2018-06-28T13:36:22.030Z,59.27
2018-06-28T13:38:49.998Z,58.74
2018-06-28T13:41:18.029Z,59.29
2018-06-28T13:43:45.531Z,59.02
2018-06-28T13:46:13.321Z,59.46
2018-06-28T13:48:41.657Z,59.53
2018-06-28T13:51:09.357Z,59.52
2018-06-28T13:53:37.168Z,59.42
2018-06-28T13:56:05.029Z,59.49
2018-06-28T13:58:33.368Z,59.99
2018-06-28T14:01:01.351Z,60.20
2018-06-28T14:06:11.616Z,59.98
2018-06-28T14:08:39.646Z,60.18
2018-06-28T14:11:07.292Z,59.91
2018-06-28T14:13:34.984Z,59.95
2018-06-28T14:16:03.475Z,59.98
2018-06-28T14:18:31.120Z,60.27
2018-06-28T14:20:59.616Z,60.08
2018-06-28T14:23:27.348Z,60.10
2018-06-28T14:25:55.090Z,60.58
2018-06-28T14:28:23.757Z,60.83
2018-06-28T14:30:51.722Z,60.71
2018-06-28T14:33:20.448Z,60.78
2018-06-28T14:35:49.040Z,60.49
2018-06-28T14:38:16.886Z,60.48
2018-06-28T14:40:44.442Z,60.63
2018-06-28T14:43:13.126Z,60.86
2018-06-28T14:45:40.952Z,60.83
2018-06-28T14:48:08.594Z,60.69
2018-06-28T14:50:36.336Z,60.90
2018-06-28T14:53:04.225Z,61.08
2018-06-28T14:55:31.863Z,60.92
2018-06-28T14:58:00.229Z,61.00
2018-06-28T15:00:28.026Z,61.44
2018-06-28T15:02:55.709Z,61.80
2018-06-28T15:05:24.235Z,61.16
2018-06-28T15:07:54.218Z,61.80
2018-06-28T15:10:21.890Z,61.83
2018-06-28T15:12:49.680Z,61.60
2018-06-28T15:15:17.474Z,61.34
2018-06-28T15:17:45.209Z,61.56
2018-06-28T15:20:12.976Z,61.37
2018-06-28T15:22:40.747Z,61.54
2018-06-28T15:25:09.268Z,61.57
2018-06-28T15:27:37.158Z,61.64
2018-06-28T15:30:04.918Z,61.87
2018-06-28T15:32:32.609Z,62.32
2018-06-28T15:35:01.250Z,61.67
2018-06-28T15:37:29.837Z,62.13
2018-06-28T15:39:57.484Z,62.07
2018-06-28T15:42:25.346Z,62.61
2018-06-28T15:44:53.035Z,62.94
2018-06-28T15:47:20.611Z,62.35
2018-06-28T15:49:48.405Z,62.24
2018-06-28T15:52:31.314Z,62.25
2018-06-28T15:54:59.154Z,62.76
2018-06-28T15:57:26.831Z,62.10
2018-06-28T15:59:55.339Z,62.12
2018-06-28T16:02:24.129Z,62.12
2018-06-28T16:04:53.433Z,62.19
2018-06-28T16:07:21.216Z,62.01
2018-06-28T16:09:49.076Z,62.66
2018-06-28T16:12:16.724Z,63.12
2018-06-28T16:14:45.177Z,62.56
2018-06-28T16:17:12.926Z,63.03
2018-06-28T16:19:40.608Z,62.91
2018-06-28T16:22:08.624Z,62.90
2018-06-28T16:24:36.478Z,63.23
2018-06-28T16:27:04.769Z,63.50
2018-06-28T16:29:33.492Z,63.52
2018-06-28T16:32:16.218Z,63.30
2018-06-28T16:34:44.047Z,63.72
2018-06-28T16:37:11.903Z,63.84
2018-06-28T16:39:39.664Z,63.67
2018-06-28T16:42:07.488Z,63.90
2018-06-28T16:44:35.724Z,63.44
2018-06-28T16:47:03.541Z,63.56
2018-06-28T16:50:02.060Z,64.23
2018-06-28T16:52:29.790Z,64.04
2018-06-28T16:54:57.484Z,63.95
2018-06-28T16:57:25.269Z,64.13
2018-06-28T16:59:53.189Z,64.09
2018-06-28T17:02:21.610Z,63.82
2018-06-28T17:04:49.336Z,64.17
2018-06-28T17:07:17.080Z,64.09
2018-06-28T17:09:44.730Z,64.44
2018-06-28T17:12:12.654Z,64.29
2018-06-28T17:14:41.336Z,64.29
2018-06-28T17:17:09.077Z,63.89
2018-06-28T17:19:36.858Z,64.38
2018-06-28T17:22:05.966Z,64.38
2018-06-28T17:24:33.626Z,64.07
2018-06-28T17:27:01.419Z,64.46
2018-06-28T17:29:29.519Z,64.52
2018-06-28T17:31:57.326Z,64.46
2018-06-28T17:34:25.064Z,64.51
2018-06-28T17:36:52.918Z,64.12
2018-06-28T17:39:20.755Z,64.13
2018-06-28T17:41:48.542Z,64.17
2018-06-28T17:44:16.879Z,64.56
2018-06-28T17:46:44.627Z,64.51
2018-06-28T17:49:12.392Z,64.49
2018-06-28T17:51:40.206Z,64.26
2018-06-28T17:54:07.945Z,64.19
2018-06-28T17:56:35.876Z,64.79
2018-06-28T17:59:03.875Z,64.33
2018-06-28T18:01:31.582Z,64.90
2018-06-28T18:03:59.426Z,64.63
2018-06-28T18:06:27.219Z,64.80
2018-06-28T18:08:54.965Z,64.85
2018-06-28T18:11:22.733Z,64.44
2018-06-28T18:13:52.044Z,64.52
2018-06-28T18:16:19.644Z,64.60
2018-06-28T18:18:47.505Z,64.37
2018-06-28T18:21:15.226Z,64.39
2018-06-28T18:23:42.883Z,64.72
2018-06-28T18:26:10.651Z,64.67
2018-06-28T18:28:38.424Z,64.14
2018-06-28T18:31:06.994Z,63.91
2018-06-28T18:33:34.726Z,64.11
2018-06-28T18:36:02.462Z,64.04
2018-06-28T18:38:30.201Z,64.64
2018-06-28T18:40:58.132Z,64.44
2018-06-28T18:43:26.279Z,64.51
2018-06-28T18:45:54.491Z,64.51
2018-06-28T18:48:22.812Z,64.32
2018-06-28T18:50:50.657Z,64.21
2018-06-28T18:53:18.281Z,64.05
2018-06-28T18:55:45.968Z,63.88
2018-06-28T18:58:13.751Z,64.29
2018-06-28T19:00:41.363Z,63.96
2018-06-28T19:03:09.355Z,64.38
2018-06-28T19:05:37.208Z,63.90
2018-06-28T19:08:05.736Z,64.36
2018-06-28T19:10:39.090Z,64.17
2018-06-28T19:13:07.624Z,64.22
2018-06-28T19:15:41.009Z,64.43
2018-06-28T19:18:09.036Z,64.43
2018-06-28T19:20:36.695Z,64.14
2018-06-28T19:23:10.166Z,64.44
2018-06-28T19:25:37.956Z,64.31
2018-06-28T19:28:05.613Z,64.44
2018-06-28T19:30:40.839Z,63.85
2018-06-28T19:33:08.919Z,64.04
2018-06-28T19:35:36.711Z,63.98
2018-06-28T19:38:04.349Z,64.47
2018-06-28T19:40:37.711Z,64.18
2018-06-28T19:43:07.606Z,63.84
2018-06-28T19:45:35.467Z,64.39
2018-06-28T19:48:03.154Z,63.94
2018-06-28T19:50:36.533Z,64.26
2018-06-28T19:53:12.005Z,64.34
2018-06-28T19:55:39.719Z,64.46
2018-06-28T19:58:07.545Z,64.61
2018-06-28T20:00:40.671Z,64.37
2018-06-28T20:03:14.077Z,64.08
2018-06-28T20:05:41.953Z,64.44
2018-06-28T20:08:10.697Z,64.24
2018-06-28T20:10:38.648Z,63.96
2018-06-28T20:13:11.821Z,63.97
2018-06-28T20:15:53.062Z,64.36
2018-06-28T20:18:26.181Z,64.06
2018-06-28T20:20:54.391Z,63.77
2018-06-28T20:23:22.230Z,64.45
2018-06-28T20:25:50.182Z,63.71
2018-06-28T20:28:23.483Z,64.20
2018-06-28T20:30:56.654Z,64.27
2018-06-28T20:33:30.158Z,64.20
2018-06-28T20:35:58.114Z,64.11
2018-06-28T20:38:25.985Z,64.04
2018-06-28T20:40:53.581Z,64.02
2018-06-28T20:43:21.421Z,64.44
2018-06-28T20:45:50.039Z,64.37
2018-06-28T20:48:17.959Z,64.56
2018-06-28T20:50:45.918Z,64.64
2018-06-28T20:53:13.580Z,64.28
2018-06-28T20:55:41.307Z,64.42
2018-06-28T20:58:09.077Z,64.47
2018-06-28T21:00:37.125Z,64.66
2018-06-28T21:03:05.835Z,64.47
2018-06-28T21:05:33.577Z,64.43
2018-06-28T21:08:01.292Z,64.57
2018-06-28T21:10:28.874Z,65.19
2018-06-28T21:12:56.618Z,64.76
2018-06-28T21:15:24.396Z,64.97
2018-06-28T21:17:52.065Z,64.93
2018-06-28T21:20:19.905Z,65.11
2018-06-28T21:22:47.663Z,65.59
2018-06-28T21:25:15.651Z,65.21
2018-06-28T21:27:43.439Z,65.38
2018-06-28T21:30:11.127Z,65.27
2018-06-28T21:32:38.740Z,65.41
2018-06-28T21:35:06.507Z,65.24
2018-06-28T21:37:34.256Z,65.38
2018-06-28T21:40:01.949Z,65.28
2018-06-28T21:42:29.631Z,65.49
2018-06-28T21:44:57.552Z,65.61
2018-06-28T21:47:25.183Z,65.56
2018-06-28T21:49:52.889Z,65.39
2018-06-28T21:52:20.835Z,65.69
2018-06-28T21:54:48.414Z,65.68
2018-06-28T21:57:16.103Z,65.98
2018-06-28T21:59:43.829Z,65.98
2018-06-28T22:02:11.436Z,65.59
2018-06-28T22:04:39.026Z,65.83
2018-06-28T22:07:06.802Z,66.26
2018-06-28T22:09:34.430Z,65.79
2018-06-28T22:12:02.118Z,65.98
2018-06-28T22:14:29.800Z,65.83
2018-06-28T22:16:57.384Z,65.68
2018-06-28T22:19:25.123Z,66.12
2018-06-28T22:21:53.151Z,65.88
2018-06-28T22:24:20.741Z,65.79
2018-06-28T22:26:48.549Z,66.09
2018-06-28T22:29:16.304Z,66.42
2018-06-28T22:31:43.943Z,66.73
2018-06-28T22:34:11.965Z,66.40
2018-06-28T22:36:39.710Z,66.65
2018-06-28T22:39:11.166Z,66.56
2018-06-28T22:41:38.727Z,66.60
2018-06-28T22:44:06.443Z,66.49
2018-06-28T22:46:34.462Z,66.72
2018-06-28T22:49:02.359Z,66.94
2018-06-28T22:51:30.113Z,66.89
2018-06-28T22:53:57.951Z,67.06
2018-06-28T22:56:25.783Z,66.84
2018-06-28T22:58:53.499Z,66.87
2018-06-28T23:01:21.140Z,66.44
2018-06-28T23:03:48.815Z,66.76
2018-06-28T23:06:16.718Z,66.42
2018-06-28T23:08:44.490Z,66.41
2018-06-28T23:11:12.431Z,66.93
2018-06-28T23:13:40.286Z,66.70
2018-06-28T23:16:08.294Z,66.83
2018-06-28T23:18:36.029Z,66.59
2018-06-28T23:21:04.153Z,66.59
2018-06-28T23:23:31.791Z,66.45
2018-06-28T23:25:59.479Z,66.35
2018-06-28T23:28:27.559Z,66.33
2018-06-28T23:30:55.071Z,66.20
2018-06-28T23:33:22.815Z,66.61
2018-06-28T23:35:50.562Z,66.08
2018-06-28T23:38:18.180Z,66.42
2018-06-28T23:40:45.970Z,66.63
2018-06-28T23:43:13.838Z,66.66
2018-06-28T23:45:41.471Z,66.57
2018-06-28T23:48:09.275Z,66.46
2018-06-28T23:50:37.140Z,66.48
2018-06-28T23:53:04.874Z,66.29
2018-06-28T23:55:32.607Z,66.32
2018-06-28T23:58:00.424Z,66.48
